KPUW

Pullman / Moscow Regional Airport

Pullman/Moscow, Washington, USA
METAR KPUW 202353Z AUTO 11013KT 5SM HZ CLR 24/08 A3006 RMK AO2 SLP166 T02390078 10261 20228 51005
Observed Flight Rules
Aug-20 @ 23:53 UTC (16 minutes ago) Marginal Visual Flight Rules
Wind Visibility Clouds Conditions
110° at 13 knots 5 miles
  • Clear skies
  • Haze
Temperatures Readings
Current 24°C / 75°F
Dewpoint 8°C / 46°F
Humidity 36%
Altimeter 30.06" Hg
Pressure 1016.6 hPa
Elevation 773
METAR KPUW 202353Z AUTO 11013KT 5SM HZ CLR 24/08 A3006 RMK AO2 SLP166 T02390078 10261 20228 51005
Observed Flight Rules
Aug-20 @ 23:53 UTC
(16 minutes ago)
MVFR
Wind Visibility
110° at 13 knots 5 miles
Clouds
  • Clear skies
Conditions
  • Haze
Temperature Dewpoint
24°C / 75°F 8°C / 46°F
Humidity Altimeter Pressure
36% 30.06" Hg 1016.6 hPa